Viking Amber — 9V7985 — position and weather

sailwx.info

Track history (hours):
 
Tides and Currents Weather Stations Pressure Air Temp Water Temp Dewpoint Dewpoint Depression Visibility Wind Speed Wind Dir Waves Ship Positions

Viking Amber

Last reported at 2016-Nov-29 03:19 UTC. Time now 2016-Dec-03 19:38 UTC.
Position N 01°55' E 102°20'.

Length 167 m; draft 7.5 m.

Type: Other ship. MMSI: 563255000.

Date/timePositionNaut miles runAvg speedWind from/ knotsBaromVisibWave heightAir tempDewpointWater temp
2016-Nov-29 03:19N 01°55' E 102°20'1312.7
2016-Nov-29 02:18N 01°50' E 102°32'811.1
2016-Nov-29 01:33N 01°46' E 102°40'1010.4
2016-Nov-29 00:34N 01°42' E 102°49'6110.0
2016-Nov-28 18:27N 01°17' E 103°45'1 0.7
2016-Nov-28 17:32N 01°17' E 103°45'0 0.0
2016-Nov-28 16:32N 01°17' E 103°45'0 0.0
2016-Nov-28 15:29N 01°17' E 103°45'0 0.0
2016-Nov-28 14:29N 01°17' E 103°45'0 0.0
2016-Nov-28 13:32N 01°17' E 103°45'0 0.0
2016-Nov-28 11:26N 01°17' E 103°45'0 0.0
2016-Nov-28 10:29N 01°17' E 103°45'0 0.0
2016-Nov-28 09:23N 01°17' E 103°45'1 0.8
2016-Nov-28 08:33N 01°17' E 103°45'9 7.8
2016-Nov-28 07:27N 01°13' E 103°53'  
2016-Nov-21 08:33N 35°25' E 139°42'2 2.3
2016-Nov-21 07:31N 35°27' E 139°41'0 0.0
2016-Nov-21 05:31N 35°27' E 139°41'0 0.0
2016-Nov-21 04:31N 35°27' E 139°41'0 0.0
2016-Nov-21 02:31N 35°27' E 139°41'0 0.0
2016-Nov-21 00:31N 35°27' E 139°41'0 0.0
2016-Nov-20 22:33N 35°27' E 139°41'5 4.7
2016-Nov-20 21:33N 35°23' E 139°43'248 6.9
2016-Nov-19 09:30N 33°57' E 134°59'2914.9
2016-Nov-19 07:33N 34°26' E 135°05'  
Track history (hours):
 
Tides and Currents Weather Stations Pressure Air Temp Water Temp Dewpoint Dewpoint Depression Visibility Wind Speed Wind Dir Waves Ship Positions

Viking Amber

Last reported at 2016-Nov-29 03:19 UTC. Time now 2016-Dec-03 19:38 UTC.
Position N 01°55' E 102°20'.

Length 167 m; draft 7.5 m.

Type: Other ship. MMSI: 563255000.

Date/timePositionNaut miles runAvg speedWind from/ knotsBaromVisibWave heightAir tempDewpointWater temp
2016-Nov-29 03:19N 01°55' E 102°20'1312.7
2016-Nov-29 02:18N 01°50' E 102°32'811.1
2016-Nov-29 01:33N 01°46' E 102°40'1010.4
2016-Nov-29 00:34N 01°42' E 102°49'6110.0
2016-Nov-28 18:27N 01°17' E 103°45'1 0.7
2016-Nov-28 17:32N 01°17' E 103°45'0 0.0
2016-Nov-28 16:32N 01°17' E 103°45'0 0.0
2016-Nov-28 15:29N 01°17' E 103°45'0 0.0
2016-Nov-28 14:29N 01°17' E 103°45'0 0.0
2016-Nov-28 13:32N 01°17' E 103°45'0 0.0
2016-Nov-28 11:26N 01°17' E 103°45'0 0.0
2016-Nov-28 10:29N 01°17' E 103°45'0 0.0
2016-Nov-28 09:23N 01°17' E 103°45'1 0.8
2016-Nov-28 08:33N 01°17' E 103°45'9 7.8
2016-Nov-28 07:27N 01°13' E 103°53'  
2016-Nov-21 08:33N 35°25' E 139°42'2 2.3
2016-Nov-21 07:31N 35°27' E 139°41'0 0.0
2016-Nov-21 05:31N 35°27' E 139°41'0 0.0
2016-Nov-21 04:31N 35°27' E 139°41'0 0.0
2016-Nov-21 02:31N 35°27' E 139°41'0 0.0
2016-Nov-21 00:31N 35°27' E 139°41'0 0.0
2016-Nov-20 22:33N 35°27' E 139°41'5 4.7
2016-Nov-20 21:33N 35°23' E 139°43'248 6.9
2016-Nov-19 09:30N 33°57' E 134°59'2914.9
2016-Nov-19 07:33N 34°26' E 135°05'  

Dump ship's entire track history